Time;durP1;ratioP1;P1;durP2;ratioP2;P2;SDS_P1;SDS_P2;PMS_P1;PMS_P2;Temp;Humidity;BMP_temperature;BMP_pressure;BME280_temperature;BME280_humidity;BME280_pressure;Samples;Min_cycle;Max_cycle;Signal;HPM_P1;HPM_P2
2021/04/29 00:02:19;;;;;;;19.98;12.82;;;256.30;2252.80;;;;;;4899452;29;20385;-79
2021/04/29 00:04:44;;;;;;;23.55;12.23;;;256.20;2252.80;;;;;;4920154;29;20476;-78
2021/04/29 00:07:10;;;;;;;23.75;13.18;;;256.20;2252.80;;;;;;4902111;29;20021;-79
2021/04/29 00:09:37;;;;;;;18.33;10.95;;;256.10;2252.80;;;;;;4916618;29;20036;-83
2021/04/29 00:12:04;;;;;;;20.80;13.10;;;256.00;2252.80;;;;;;4916260;29;20023;-78
2021/04/29 00:14:30;;;;;;;17.45;11.52;;;256.10;2252.80;;;;;;4918330;29;20043;-78
2021/04/29 00:16:56;;;;;;;;;;;256.00;2252.80;;;;;;4917776;29;20175;-79
2021/04/29 00:19:21;;;;;;;18.55;11.18;;;256.00;2252.80;;;;;;4918295;29;19950;-78
2021/04/29 00:21:47;;;;;;;;;;;231.30;2252.80;;;;;;4935502;29;20509;-79
2021/04/29 00:24:13;;;;;;;15.95;9.63;;;231.30;2252.80;;;;;;4917855;29;19906;-78
2021/04/29 00:26:38;;;;;;;;;;;231.30;2252.80;;;;;;4918582;29;20028;-78
2021/04/29 00:29:04;;;;;;;19.65;10.68;;;231.20;2252.80;;;;;;4914198;29;19907;-78
2021/04/29 00:31:30;;;;;;;;;;;231.20;2252.80;;;;;;4908758;29;20421;-77
2021/04/29 00:33:57;;;;;;;20.15;12.05;;;231.20;2252.80;;;;;;4934792;29;20022;-79
2021/04/29 00:36:23;;;;;;;17.20;9.90;;;231.20;2252.80;;;;;;4918161;29;20091;-79
2021/04/29 00:38:48;;;;;;;;;;;231.20;2252.80;;;;;;4918077;29;20023;-78
2021/04/29 00:41:15;;;;;;;18.35;10.00;;;231.20;2252.80;;;;;;4904837;29;19965;-82
2021/04/29 00:43:41;;;;;;;15.15;9.30;;;231.20;2252.80;;;;;;4917911;29;20079;-79
2021/04/29 00:46:12;;;;;;;;;;;231.10;2252.80;;;;;;4918255;29;20023;-78
2021/04/29 00:48:40;;;;;;;15.20;10.00;;;231.10;2252.80;;;;;;4917879;29;19913;-78
2021/04/29 00:51:05;;;;;;;13.40;8.98;;;231.10;2252.80;;;;;;4917412;29;20028;-78
2021/04/29 00:53:36;;;;;;;;;;;231.00;2252.80;;;;;;4935155;29;20027;-77
2021/04/29 00:56:02;;;;;;;14.00;8.52;;;231.00;2252.80;;;;;;4934412;29;19965;-78
2021/04/29 00:58:28;;;;;;;;;;;231.00;2252.80;;;;;;4935414;29;20059;-83
2021/04/29 01:00:54;;;;;;;15.52;9.05;;;231.00;2252.80;;;;;;4934474;29;20287;-78
2021/04/29 01:03:24;;;;;;;;;;;231.00;2252.80;;;;;;4935146;29;20075;-78
2021/04/29 01:05:57;;;;;;;14.82;9.15;;;230.90;2252.80;;;;;;4917794;29;19906;-78
2021/04/29 01:09:03;;;;;;;15.45;9.63;;;230.90;2252.80;;;;;;4915745;29;20531;-79
2021/04/29 01:11:33;;;;;;;14.27;8.13;;;231.00;2252.80;;;;;;4897934;29;20076;-78
2021/04/29 01:14:03;;;;;;;15.43;9.00;;;230.80;2252.80;;;;;;4917181;29;20039;-78
2021/04/29 01:16:30;;;;;;;13.80;9.30;;;230.90;2252.80;;;;;;4934374;29;20059;-83
2021/04/29 01:18:57;;;;;;;13.57;8.57;;;231.00;2252.80;;;;;;4934470;29;20469;-83
2021/04/29 01:21:27;;;;;;;13.52;8.10;;;230.90;2252.80;;;;;;4917383;29;20044;-78
2021/04/29 01:23:56;;;;;;;12.50;7.68;;;230.90;2252.80;;;;;;4917672;29;20032;-82
2021/04/29 01:26:36;;;;;;;14.55;9.93;;;230.90;2252.80;;;;;;4917699;29;20396;-83
2021/04/29 01:29:12;;;;;;;13.68;9.18;;;230.90;2252.80;;;;;;4921244;29;20023;-79
2021/04/29 01:31:41;;;;;;;12.48;8.68;;;230.90;2252.80;;;;;;4921089;29;20128;-78
2021/04/29 01:34:09;;;;;;;13.15;8.10;;;230.90;2252.80;;;;;;4920891;29;20040;-78
2021/04/29 01:36:36;;;;;;;12.38;8.32;;;230.90;2252.80;;;;;;4921253;29;20067;-80
2021/04/29 01:39:08;;;;;;;12.68;7.72;;;230.90;2252.80;;;;;;4921121;29;20034;-77
2021/04/29 01:41:40;;;;;;;11.52;7.00;;;230.90;2252.80;;;;;;4921103;29;20050;-79
2021/04/29 01:44:08;;;;;;;11.93;7.47;;;230.90;2252.80;;;;;;4937959;29;20078;-78
2021/04/29 01:46:35;;;;;;;12.50;7.25;;;230.90;2252.80;;;;;;4920873;29;20024;-79
2021/04/29 01:49:01;;;;;;;11.95;7.68;;;230.90;2252.80;;;;;;4920984;29;20547;-78
2021/04/29 01:51:28;;;;;;;13.57;8.23;;;231.00;2252.80;;;;;;4907104;29;20031;-78
2021/04/29 01:53:54;;;;;;;12.32;7.63;;;231.00;2252.80;;;;;;4920848;29;20488;-78
2021/04/29 01:56:20;;;;;;;12.30;7.40;;;230.90;2252.80;;;;;;4920380;29;20038;-78
2021/04/29 01:58:46;;;;;;;12.50;7.78;;;231.00;2252.80;;;;;;4937662;29;20407;-79
2021/04/29 02:01:12;;;;;;;13.38;7.25;;;231.00;2252.80;;;;;;4937339;29;20130;-79
2021/04/29 02:03:38;;;;;;;;;;;231.00;2252.80;;;;;;4921089;29;20483;-78
2021/04/29 02:06:04;;;;;;;14.60;7.88;;;231.00;2252.80;;;;;;4937689;29;19907;-77
2021/04/29 02:08:30;;;;;;;;;;;231.00;2252.80;;;;;;4918411;29;20148;-79
2021/04/29 02:10:56;;;;;;;12.90;6.80;;;231.00;2252.80;;;;;;4909651;29;19910;-79
2021/04/29 02:13:26;;;;;;;9.95;7.18;;;231.00;2252.80;;;;;;4920020;29;20106;-77
2021/04/29 02:16:00;;;;;;;13.02;7.88;;;231.00;2252.80;;;;;;4931149;29;20127;-80
2021/04/29 02:18:28;;;;;;;10.13;7.07;;;231.10;2252.80;;;;;;4901483;29;20540;-79
2021/04/29 02:20:56;;;;;;;10.63;6.90;;;231.10;2252.80;;;;;;4901197;29;20052;-79
2021/04/29 02:23:24;;;;;;;9.55;6.43;;;231.00;2252.80;;;;;;4901467;29;20079;-78
2021/04/29 02:25:53;;;;;;;11.27;7.78;;;231.00;2252.80;;;;;;4900229;29;20036;-78
2021/04/29 02:28:20;;;;;;;10.43;7.53;;;231.00;2252.80;;;;;;4901374;29;20028;-78
2021/04/29 02:30:47;;;;;;;10.40;7.35;;;230.90;2252.80;;;;;;4900877;29;20044;-77
2021/04/29 02:33:14;;;;;;;18.63;7.07;;;230.90;2252.80;;;;;;4918286;29;20123;-78
2021/04/29 02:35:40;;;;;;;9.80;6.93;;;230.90;2252.80;;;;;;4918217;29;20102;-78
2021/04/29 02:38:06;;;;;;;;;;;230.90;2252.80;;;;;;4910632;29;20108;-78
2021/04/29 02:40:32;;;;;;;10.23;7.03;;;230.90;2252.80;;;;;;4917188;29;19963;-77
2021/04/29 02:42:57;;;;;;;;;;;230.80;2252.80;;;;;;4918093;29;20385;-79
2021/04/29 02:45:24;;;;;;;13.77;7.88;;;230.80;2252.80;;;;;;4901084;29;19913;-78
2021/04/29 02:47:52;;;;;;;9.85;7.03;;;230.80;2252.80;;;;;;4917511;29;20024;-79
2021/04/29 02:50:25;;;;;;;12.23;7.80;;;230.80;2252.80;;;;;;4918063;29;20032;-78
2021/04/29 02:52:52;;;;;;;10.98;7.47;;;230.80;2252.80;;;;;;4921057;29;20051;-78
2021/04/29 02:55:20;;;;;;;10.57;7.03;;;230.80;2252.80;;;;;;4917707;29;20043;-78
2021/04/29 02:57:46;;;;;;;9.63;6.95;;;230.80;2252.80;;;;;;4900408;29;20077;-78
2021/04/29 03:00:14;;;;;;;;;;;230.80;2252.80;;;;;;4900737;29;20063;-80
2021/04/29 03:02:41;;;;;;;12.07;7.18;;;230.80;2252.80;;;;;;4900744;29;19998;-78
2021/04/29 03:05:08;;;;;;;18.63;8.10;;;230.70;2252.80;;;;;;4910404;29;20036;-79
2021/04/29 03:07:34;;;;;;;10.38;6.68;;;230.70;2252.80;;;;;;4900575;29;20032;-81
2021/04/29 03:10:00;;;;;;;;;;;230.60;2252.80;;;;;;4901129;29;20028;-79
2021/04/29 03:12:26;;;;;;;16.10;7.97;;;230.60;2252.80;;;;;;4919577;29;19968;-79
2021/04/29 03:14:52;;;;;;;13.40;8.25;;;230.60;2252.80;;;;;;4907168;29;20047;-79
2021/04/29 03:17:18;;;;;;;;;;;230.60;2252.80;;;;;;4918924;29;20074;-79
2021/04/29 03:19:43;;;;;;;11.48;7.32;;;230.60;2252.80;;;;;;4919438;29;20356;-79
2021/04/29 03:22:09;;;;;;;;;;;230.50;2252.80;;;;;;4916330;29;20036;-79
2021/04/29 03:24:35;;;;;;;11.57;8.45;;;230.60;2252.80;;;;;;4908716;29;19949;-79
2021/04/29 03:27:00;;;;;;;;;;;230.50;2252.80;;;;;;4906021;29;20031;-79
2021/04/29 03:29:26;;;;;;;13.43;8.48;;;230.60;2252.80;;;;;;4918400;29;20367;-80
2021/04/29 03:31:52;;;;;;;;;;;230.60;2252.80;;;;;;4919114;29;20055;-79
2021/04/29 03:34:17;;;;;;;11.00;7.18;;;230.60;2252.80;;;;;;4919099;29;19953;-79
2021/04/29 03:36:43;;;;;;;;;;;230.60;2252.80;;;;;;4936453;29;20027;-79
2021/04/29 03:39:08;;;;;;;14.98;8.05;;;230.60;2252.80;;;;;;4916572;29;20268;-80
2021/04/29 03:41:34;;;;;;;;;;;230.60;2252.80;;;;;;4908513;29;20023;-80
2021/04/29 03:44:00;;;;;;;12.65;8.77;;;230.60;2252.80;;;;;;4904910;29;19962;-79
2021/04/29 03:46:25;;;;;;;;;;;230.60;2252.80;;;;;;4906763;29;20511;-83
2021/04/29 03:48:51;;;;;;;13.00;8.45;;;230.60;2252.80;;;;;;4906842;29;20005;-79
2021/04/29 03:51:16;;;;;;;;;;;230.60;2252.80;;;;;;4916913;29;20020;-79
2021/04/29 03:53:42;;;;;;;12.95;8.68;;;230.60;2252.80;;;;;;4918613;29;19911;-79
2021/04/29 03:56:08;;;;;;;;;;;230.70;2252.80;;;;;;4933589;29;20044;-79
2021/04/29 03:58:33;;;;;;;14.88;9.32;;;230.70;2252.80;;;;;;4907742;29;19907;-78
2021/04/29 04:00:59;;;;;;;;;;;230.70;2252.80;;;;;;4936073;29;20079;-79
2021/04/29 04:03:25;;;;;;;15.07;9.02;;;230.70;2252.80;;;;;;4912265;29;19915;-80
2021/04/29 04:05:50;;;;;;;;;;;230.80;2252.80;;;;;;4929199;29;20498;-79
2021/04/29 04:08:16;;;;;;;17.08;9.85;;;230.90;2252.80;;;;;;4917851;29;19907;-79
2021/04/29 04:10:41;;;;;;;;;;;230.90;2252.80;;;;;;4906336;29;20028;-80
2021/04/29 04:13:22;;;;;;;16.60;10.30;;;230.90;2252.80;;;;;;4918120;29;20290;-79
2021/04/29 04:15:48;;;;;;;18.55;11.20;;;230.90;2252.80;;;;;;4915365;29;20123;-79
2021/04/29 04:18:15;;;;;;;15.88;9.90;;;231.00;2252.80;;;;;;4911695;29;20503;-80
2021/04/29 04:20:41;;;;;;;12.35;9.05;;;231.10;2252.80;;;;;;4904859;29;20376;-83
2021/04/29 04:23:07;;;;;;;15.20;10.73;;;231.10;2252.80;;;;;;4908193;29;20060;-79
2021/04/29 04:25:33;;;;;;;;;;;231.10;2252.80;;;;;;4915322;29;20059;-79
2021/04/29 04:27:59;;;;;;;16.38;10.35;;;231.10;2252.80;;;;;;4918191;29;20355;-80
2021/04/29 04:30:25;;;;;;;15.77;9.73;;;231.10;2252.80;;;;;;4934626;29;20511;-79
2021/04/29 04:32:51;;;;;;;;;;;231.10;2252.80;;;;;;4918781;29;20552;-78
2021/04/29 04:35:17;;;;;;;14.68;9.27;;;231.10;2252.80;;;;;;4918143;29;19918;-79
2021/04/29 04:37:44;;;;;;;;;;;231.10;2252.80;;;;;;4913126;29;20032;-80
2021/04/29 04:40:10;;;;;;;18.98;9.48;;;231.10;2252.80;;;;;;4899354;29;20001;-83
2021/04/29 04:42:35;;;;;;;15.40;8.75;;;231.20;2252.80;;;;;;4898520;29;20115;-83
2021/04/29 04:45:01;;;;;;;;;;;231.20;2252.80;;;;;;4899410;29;20480;-79
2021/04/29 04:47:27;;;;;;;12.95;9.95;;;231.30;2252.80;;;;;;4915832;29;19911;-78
2021/04/29 04:49:52;;;;;;;;;;;231.20;2252.80;;;;;;4916301;29;20032;-79
2021/04/29 04:52:18;;;;;;;16.38;10.25;;;231.20;2252.80;;;;;;4915854;29;20284;-78
2021/04/29 04:54:44;;;;;;;;;;;231.20;2252.80;;;;;;4899230;29;20043;-79
2021/04/29 04:57:10;;;;;;;14.30;9.77;;;231.30;2252.80;;;;;;4915578;29;19908;-80
2021/04/29 04:59:37;;;;;;;15.55;10.20;;;231.30;2252.80;;;;;;4898645;29;20021;-79
2021/04/29 05:02:03;;;;;;;17.73;11.15;;;231.30;2252.80;;;;;;4898422;29;20036;-79
2021/04/29 05:04:29;;;;;;;15.18;10.32;;;256.20;2252.80;;;;;;4898803;29;20028;-79
2021/04/29 05:06:56;;;;;;;15.27;10.48;;;256.30;2252.80;;;;;;4909986;29;20079;-81
2021/04/29 05:09:22;;;;;;;17.40;11.27;;;256.40;2252.80;;;;;;4907686;29;20102;-79
2021/04/29 05:11:48;;;;;;;18.02;11.70;;;256.70;2252.80;;;;;;4904238;29;20040;-80
2021/04/29 05:14:14;;;;;;;15.60;9.63;;;256.50;2252.80;;;;;;4917191;29;20031;-78
2021/04/29 05:16:40;;;;;;;17.23;10.55;;;256.50;2252.80;;;;;;4898742;29;20471;-79
2021/04/29 05:19:06;;;;;;;14.48;10.13;;;256.50;2252.80;;;;;;4898489;29;20028;-81
2021/04/29 05:21:32;;;;;;;;;;;256.60;2252.80;;;;;;4899089;29;20021;-79
2021/04/29 05:23:58;;;;;;;18.05;10.65;;;256.60;2252.80;;;;;;4898539;29;19914;-82
2021/04/29 05:26:23;;;;;;;;;;;256.70;2252.80;;;;;;4923382;29;20425;-79
2021/04/29 05:28:50;;;;;;;22.80;13.98;;;256.80;2252.80;;;;;;4898228;29;19907;-77
2021/04/29 05:31:16;;;;;;;17.55;12.43;;;256.80;2252.80;;;;;;4915002;29;20044;-77
2021/04/29 05:33:42;;;;;;;23.33;11.80;;;256.90;2252.80;;;;;;4915237;29;20028;-78
2021/04/29 05:36:07;;;;;;;;;;;281.60;2278.40;;;;;;4920932;29;20119;-75
2021/04/29 05:38:33;;;;;;;19.35;11.35;;;281.70;2278.40;;;;;;4903701;29;19927;-78
2021/04/29 05:40:58;;;;;;;;;;;281.80;2278.40;;;;;;4897993;29;20115;-78
2021/04/29 05:43:24;;;;;;;17.65;10.25;;;281.80;2278.40;;;;;;4898763;29;19907;-78
2021/04/29 05:45:50;;;;;;;;;;;281.70;2278.40;;;;;;4917044;29;20460;-78
2021/04/29 05:48:15;;;;;;;16.88;11.52;;;281.80;2278.40;;;;;;4898413;29;19911;-80
2021/04/29 05:50:41;;;;;;;;;;;281.80;2278.40;;;;;;4915492;29;20472;-78
2021/04/29 05:53:07;;;;;;;14.35;8.70;;;282.00;2278.40;;;;;;4897892;29;19946;-79
2021/04/29 05:55:33;;;;;;;14.25;9.45;;;281.90;2278.40;;;;;;4905583;29;20067;-78
2021/04/29 05:58:00;;;;;;;13.38;9.30;;;282.00;2278.40;;;;;;4925194;29;20042;-78
2021/04/29 06:00:27;;;;;;;13.77;9.75;;;282.00;2278.40;;;;;;4906640;29;20020;-78
2021/04/29 06:02:55;;;;;;;12.20;8.05;;;282.10;2278.40;;;;;;4908902;29;20259;-76
2021/04/29 06:05:21;;;;;;;15.52;9.07;;;282.10;2278.40;;;;;;4922128;29;20055;-77
2021/04/29 06:07:57;;;;;;;12.80;8.82;;;282.10;2278.40;;;;;;4906372;29;20377;-77
2021/04/29 06:10:23;;;;;;;19.83;9.88;;;282.10;2278.40;;;;;;4924605;29;20028;-78
2021/04/29 06:12:49;;;;;;;;;;;282.20;2278.40;;;;;;4906178;29;20131;-78
2021/04/29 06:15:15;;;;;;;11.77;8.80;;;282.20;2278.40;;;;;;4931209;29;19926;-77
2021/04/29 06:17:41;;;;;;;10.55;7.78;;;282.20;2278.40;;;;;;4910402;29;20548;-80
2021/04/29 06:20:07;;;;;;;15.52;8.98;;;282.20;2278.40;;;;;;4926784;29;20111;-78
2021/04/29 06:22:33;;;;;;;12.30;8.63;;;282.30;2278.40;;;;;;4911607;29;20078;-78
2021/04/29 06:24:59;;;;;;;13.18;9.07;;;282.40;2278.40;;;;;;4920524;29;20110;-74
2021/04/29 06:27:25;;;;;;;;;;;282.50;2278.40;;;;;;4904068;29;20024;-77
2021/04/29 06:29:50;;;;;;;13.15;8.23;;;282.50;2278.40;;;;;;4917767;29;19913;-77
2021/04/29 06:32:16;;;;;;;;;;;282.50;2278.40;;;;;;4911959;29;20496;-74
2021/04/29 06:34:42;;;;;;;15.38;9.18;;;307.20;2304.00;;;;;;4925593;29;19954;-75
2021/04/29 06:37:08;;;;;;;17.65;9.93;;;307.20;2304.00;;;;;;4923990;29;20473;-78
2021/04/29 06:39:34;;;;;;;12.60;8.63;;;307.30;2304.00;;;;;;4917202;29;20035;-75
2021/04/29 06:41:59;;;;;;;12.18;8.60;;;307.30;2304.00;;;;;;4924026;29;20021;-77
2021/04/29 06:44:25;;;;;;;13.27;9.38;;;307.60;2304.00;;;;;;4909807;29;20025;-78
2021/04/29 06:46:51;;;;;;;;;;;308.00;2304.00;;;;;;4901658;29;20060;-79
2021/04/29 06:49:16;;;;;;;12.57;8.55;;;308.10;2304.00;;;;;;4917941;29;19907;-78
2021/04/29 06:51:42;;;;;;;;;;;308.10;2304.00;;;;;;4901034;29;20027;-79
2021/04/29 06:54:08;;;;;;;11.88;7.38;;;308.10;2278.40;;;;;;4921565;29;19907;-78
2021/04/29 06:56:35;;;;;;;13.25;8.05;;;308.10;2304.00;;;;;;4921542;29;20039;-78
2021/04/29 06:59:05;;;;;;;12.32;8.90;;;332.90;2329.60;;;;;;4900670;29;20028;-78
2021/04/29 07:01:31;;;;;;;14.93;8.57;;;333.00;2304.00;;;;;;4900236;29;20115;-75
2021/04/29 07:03:58;;;;;;;12.07;8.85;;;333.20;2278.40;;;;;;4900747;29;20036;-74
2021/04/29 07:06:24;;;;;;;13.65;8.13;;;333.10;2278.40;;;;;;4900322;29;20484;-77
2021/04/29 07:08:50;;;;;;;12.75;8.43;;;333.20;2278.40;;;;;;4917495;29;20036;-78
2021/04/29 07:11:17;;;;;;;18.13;9.70;;;333.40;2278.40;;;;;;4900531;29;20032;-75
2021/04/29 07:13:42;;;;;;;12.77;9.35;;;333.50;2252.80;;;;;;4916523;29;20075;-78
2021/04/29 07:16:08;;;;;;;12.85;9.20;;;333.70;2227.20;;;;;;4936404;29;20461;-78
2021/04/29 07:18:34;;;;;;;15.63;9.80;;;358.60;2201.60;;;;;;4918934;29;20374;-75
2021/04/29 07:20:59;;;;;;;12.07;7.97;;;358.70;2201.60;;;;;;4936446;29;20406;-77
2021/04/29 07:23:25;;;;;;;12.35;9.48;;;359.00;2150.40;;;;;;4919044;29;20031;-74
2021/04/29 07:25:51;;;;;;;13.90;9.55;;;359.10;2201.60;;;;;;4935938;29;20477;-76
2021/04/29 07:28:17;;;;;;;14.45;8.95;;;359.00;2150.40;;;;;;4935966;29;20038;-75
2021/04/29 07:30:44;;;;;;;13.93;8.48;;;359.00;2150.40;;;;;;4935438;29;20111;-77
2021/04/29 07:33:11;;;;;;;11.93;8.40;;;358.90;2150.40;;;;;;4918837;29;20032;-75
2021/04/29 07:35:38;;;;;;;16.95;9.93;;;358.90;2150.40;;;;;;4935768;29;20032;-76
2021/04/29 07:38:04;;;;;;;18.17;9.85;;;359.10;2176.00;;;;;;4918825;29;20024;-76
2021/04/29 07:40:32;;;;;;;13.32;8.38;;;359.20;2150.40;;;;;;4918335;29;20035;-75
2021/04/29 07:42:58;;;;;;;14.23;9.38;;;359.10;2124.80;;;;;;4922973;29;20026;-78
2021/04/29 07:45:24;;;;;;;14.27;9.15;;;359.20;2150.40;;;;;;4924003;29;20032;-76
2021/04/29 07:47:50;;;;;;;10.52;8.05;;;384.00;2124.80;;;;;;4934164;29;20496;-76
2021/04/29 07:50:15;;;;;;;16.30;9.60;;;384.20;2124.80;;;;;;4935714;29;20038;-75
2021/04/29 07:52:42;;;;;;;13.00;9.00;;;384.30;2124.80;;;;;;4918539;29;20123;-75
2021/04/29 07:55:13;;;;;;;11.32;7.72;;;384.50;2073.60;;;;;;4918407;29;20043;-76
2021/04/29 07:57:40;;;;;;;14.65;9.50;;;384.60;2048.00;;;;;;4918607;29;20034;-76
2021/04/29 08:00:07;;;;;;;11.40;8.48;;;384.90;2048.00;;;;;;4914089;29;20129;-74
2021/04/29 08:02:34;;;;;;;14.00;8.27;;;384.90;2022.40;;;;;;4903974;29;20131;-76
2021/04/29 08:04:59;;;;;;;9.98;7.70;;;409.60;2048.00;;;;;;4912605;29;20024;-74
2021/04/29 08:07:26;;;;;;;11.73;8.65;;;384.90;2022.40;;;;;;4907787;29;20031;-76
2021/04/29 08:09:52;;;;;;;22.17;9.68;;;409.60;2073.60;;;;;;4908322;29;20032;-74
2021/04/29 08:12:18;;;;;;;13.60;9.73;;;409.70;2073.60;;;;;;4923513;29;20380;-74
2021/04/29 08:14:43;;;;;;;15.85;8.90;;;409.60;2048.00;;;;;;4924670;29;20036;-77
2021/04/29 08:17:09;;;;;;;9.52;7.85;;;409.70;2048.00;;;;;;4899022;29;20477;-76
2021/04/29 08:19:35;;;;;;;14.05;8.85;;;409.70;2073.60;;;;;;4918419;29;20472;-75
2021/04/29 08:22:02;;;;;;;14.02;7.82;;;409.90;2073.60;;;;;;4905043;29;20425;-78
2021/04/29 08:24:28;;;;;;;15.18;9.77;;;410.10;2048.00;;;;;;4915932;29;20027;-78
2021/04/29 08:26:54;;;;;;;18.83;9.18;;;410.10;2022.40;;;;;;4915963;29;20036;-78
2021/04/29 08:29:20;;;;;;;13.93;8.57;;;410.20;2022.40;;;;;;4898110;29;20036;-77
2021/04/29 08:31:45;;;;;;;11.25;7.50;;;410.30;1996.80;;;;;;4915963;29;20048;-78
2021/04/29 08:34:11;;;;;;;13.70;8.38;;;410.40;1996.80;;;;;;4898410;29;20032;-78
2021/04/29 08:36:37;;;;;;;14.25;8.10;;;410.30;1996.80;;;;;;4915310;29;20036;-74
2021/04/29 08:39:05;;;;;;;12.95;8.18;;;410.30;1971.20;;;;;;4917493;29;20040;-74
2021/04/29 08:41:31;;;;;;;14.10;8.25;;;410.50;1996.80;;;;;;4917977;29;20397;-74
2021/04/29 08:43:57;;;;;;;16.08;8.05;;;435.30;1971.20;;;;;;4898263;29;20092;-79
2021/04/29 08:46:23;;;;;;;15.82;8.00;;;435.30;1971.20;;;;;;4898859;29;20492;-76
2021/04/29 08:48:57;;;;;;;12.48;7.78;;;435.30;1971.20;;;;;;4898650;29;20032;-75
2021/04/29 08:51:24;;;;;;;18.55;9.40;;;435.40;1945.60;;;;;;4915406;29;20043;-75
2021/04/29 08:53:51;;;;;;;11.63;6.97;;;435.50;1971.20;;;;;;4915818;29;20039;-74
2021/04/29 08:56:22;;;;;;;15.05;8.65;;;435.60;1920.00;;;;;;4915347;29;20024;-76
2021/04/29 08:58:49;;;;;;;12.90;8.43;;;435.60;1945.60;;;;;;4915572;29;20151;-76
2021/04/29 09:01:15;;;;;;;13.73;8.38;;;435.50;1945.60;;;;;;4929200;29;20028;-76
2021/04/29 09:03:41;;;;;;;18.25;8.27;;;435.70;1945.60;;;;;;4934813;29;20082;-77
2021/04/29 09:06:07;;;;;;;12.40;8.18;;;435.80;1945.60;;;;;;4934218;29;20105;-78
2021/04/29 09:08:35;;;;;;;15.95;8.45;;;435.90;1945.60;;;;;;4934859;29;20066;-76
2021/04/29 09:11:10;;;;;;;14.23;8.82;;;436.10;1920.00;;;;;;4934773;29;20385;-77
2021/04/29 09:13:36;;;;;;;14.50;8.85;;;460.80;1920.00;;;;;;4934474;29;20036;-77
2021/04/29 09:16:12;;;;;;;12.23;8.13;;;460.80;1945.60;;;;;;4934536;29;20035;-77
2021/04/29 09:18:40;;;;;;;;;;;460.80;1894.40;;;;;;4917764;29;20389;-77
2021/04/29 09:21:16;;;;;;;11.07;7.15;;;461.10;1945.60;;;;;;4917635;29;19997;-77
2021/04/29 09:23:44;;;;;;;17.27;7.97;;;461.10;1920.00;;;;;;4934866;29;20106;-81
2021/04/29 09:26:12;;;;;;;16.65;8.85;;;461.10;1894.40;;;;;;4934422;29;20293;-79
2021/04/29 09:28:48;;;;;;;14.32;7.63;;;461.30;1894.40;;;;;;4934716;29;20032;-76
2021/04/29 09:31:17;;;;;;;11.43;7.53;;;461.40;1868.80;;;;;;4917219;29;20118;-79
2021/04/29 09:33:44;;;;;;;20.95;8.75;;;;;;;;;;4934565;29;20028;-78
2021/04/29 09:36:28;;;;;;;10.45;6.43;;;486.40;1843.20;;;;;;4917217;29;20047;-76
2021/04/29 09:38:59;;;;;;;18.48;7.82;;;486.70;1843.20;;;;;;4934288;29;20034;-77
2021/04/29 09:41:34;;;;;;;14.32;6.60;;;486.70;1792.00;;;;;;4934471;29;20094;-78
2021/04/29 09:44:01;;;;;;;12.40;6.70;;;;;;;;;;4917028;29;20087;-79
2021/04/29 09:46:48;;;;;;;14.13;6.43;;;;;;;;;;4934236;29;20035;-78
2021/04/29 09:49:20;;;;;;;13.85;6.68;;;512.00;1740.80;;;;;;4918520;29;20186;-78
2021/04/29 09:51:46;;;;;;;12.25;6.18;;;487.30;1740.80;;;;;;4920918;29;20122;-76
2021/04/29 09:54:22;;;;;;;14.25;6.97;;;;;;;;;;4920962;29;20031;-78
2021/04/29 09:57:17;;;;;;;10.10;6.82;;;512.30;1689.60;;;;;;4938187;29;20067;-76
2021/04/29 09:59:54;;;;;;;14.10;6.13;;;512.50;1664.00;;;;;;4937328;29;20072;-77
2021/04/29 10:02:20;;;;;;;11.38;6.95;;;512.60;1689.60;;;;;;4920650;29;20421;-79
2021/04/29 10:04:47;;;;;;;11.98;6.57;;;;;;;;;;4920956;29;20122;-79
2021/04/29 10:07:14;;;;;;;11.20;6.97;;;512.90;1638.40;;;;;;4920549;29;20031;-77
2021/04/29 10:09:42;;;;;;;13.15;7.65;;;537.60;1638.40;;;;;;4920779;29;20065;-79
2021/04/29 10:12:09;;;;;;;11.60;6.20;;;537.80;1664.00;;;;;;4937504;29;20027;-79
2021/04/29 10:14:56;;;;;;;13.55;7.07;;;537.90;1638.40;;;;;;4920450;29;20044;-78
2021/04/29 10:17:22;;;;;;;13.38;5.72;;;538.00;1664.00;;;;;;4920582;29;20020;-77
2021/04/29 10:19:54;;;;;;;12.70;6.90;;;538.00;1612.80;;;;;;4920447;29;20515;-78
2021/04/29 10:22:23;;;;;;;9.40;6.22;;;538.20;1638.40;;;;;;4937750;29;20034;-77
2021/04/29 10:24:48;;;;;;;9.60;6.68;;;538.40;1612.80;;;;;;4937396;29;20040;-77
2021/04/29 10:27:25;;;;;;;10.90;6.38;;;538.50;1638.40;;;;;;4920077;29;20158;-76
2021/04/29 10:30:12;;;;;;;9.73;5.65;;;563.40;1612.80;;;;;;4917508;29;20030;-78
2021/04/29 10:32:40;;;;;;;8.25;5.35;;;563.50;1536.00;;;;;;4911994;29;20043;-79
2021/04/29 10:35:19;;;;;;;14.25;6.60;;;563.60;1561.60;;;;;;4922889;29;20031;-77
2021/04/29 10:38:01;;;;;;;14.43;6.45;;;563.60;1587.20;;;;;;4925223;29;20020;-77
2021/04/29 10:40:36;;;;;;;10.38;5.60;;;563.90;1587.20;;;;;;4922528;29;20035;-78
2021/04/29 10:43:03;;;;;;;5.15;3.92;;;564.10;1484.80;;;;;;4926225;29;20025;-79
2021/04/29 10:45:30;;;;;;;14.27;5.60;;;564.10;1408.00;;;;;;4917536;29;20469;-79
2021/04/29 10:48:10;;;;;;;11.32;6.43;;;564.10;1484.80;;;;;;4904264;29;20552;-79
2021/04/29 10:50:47;;;;;;;10.68;6.32;;;564.00;1459.20;;;;;;4900950;29;20036;-79
2021/04/29 10:53:25;;;;;;;7.85;5.03;;;564.00;1561.60;;;;;;4907107;29;20035;-78
2021/04/29 10:55:58;;;;;;;13.40;6.50;;;564.00;1459.20;;;;;;4925901;29;20023;-77
2021/04/29 10:58:24;;;;;;;14.57;6.47;;;564.00;1484.80;;;;;;4922208;29;20130;-77
2021/04/29 11:01:11;;;;;;;8.07;5.35;;;588.80;1536.00;;;;;;4902175;29;20485;-78
2021/04/29 11:03:39;;;;;;;10.07;5.93;;;588.80;1459.20;;;;;;4917333;29;20032;-78
2021/04/29 11:06:08;;;;;;;9.02;4.63;;;589.10;1484.80;;;;;;4917531;29;20026;-78
2021/04/29 11:08:45;;;;;;;8.93;4.10;;;589.10;1408.00;;;;;;4900342;29;20083;-78
2021/04/29 11:11:25;;;;;;;11.15;4.68;;;589.10;1408.00;;;;;;4927486;29;20031;-78
2021/04/29 11:13:58;;;;;;;6.03;3.42;;;589.20;1382.40;;;;;;4923109;29;20127;-78
2021/04/29 11:16:24;;;;;;;6.22;4.20;;;589.40;1356.80;;;;;;4936119;29;20039;-79
2021/04/29 11:18:50;;;;;;;7.85;4.38;;;589.50;1408.00;;;;;;4936290;29;20372;-77
2021/04/29 11:21:28;;;;;;;7.53;4.30;;;589.70;1382.40;;;;;;4919180;29;20090;-77
2021/04/29 11:23:54;;;;;;;7.50;4.38;;;614.40;1382.40;;;;;;4919303;29;20090;-78
2021/04/29 11:26:21;;;;;;;8.27;4.90;;;589.60;1356.80;;;;;;4936164;29;20051;-78
2021/04/29 11:28:50;;;;;;;9.18;4.80;;;589.60;1356.80;;;;;;4918975;29;20031;-78
2021/04/29 11:31:18;;;;;;;9.13;3.67;;;614.50;1356.80;;;;;;4936031;29;20547;-77
2021/04/29 11:33:48;;;;;;;6.88;3.42;;;614.60;1254.40;;;;;;4906374;29;20047;-77
2021/04/29 11:36:26;;;;;;;7.22;3.50;;;614.60;1280.00;;;;;;4925504;29;20047;-78
2021/04/29 11:39:02;;;;;;;7.85;3.50;;;614.60;1280.00;;;;;;4899631;29;20036;-77
2021/04/29 11:41:29;;;;;;;6.47;3.53;;;614.80;1254.40;;;;;;4899956;29;20024;-77
2021/04/29 11:44:01;;;;;;;9.45;4.85;;;614.90;1254.40;;;;;;4900982;29;20063;-78
2021/04/29 11:46:28;;;;;;;11.57;3.85;;;615.10;1305.60;;;;;;4917312;29;20095;-77
2021/04/29 11:49:07;;;;;;;11.77;4.18;;;615.30;1305.60;;;;;;4916020;29;20031;-77
2021/04/29 11:51:42;;;;;;;7.93;3.70;;;614.90;1254.40;;;;;;4916319;29;20048;-77
2021/04/29 11:54:08;;;;;;;5.35;3.53;;;614.70;1254.40;;;;;;4916810;29;20024;-78
2021/04/29 11:56:49;;;;;;;7.72;3.70;;;614.90;1254.40;;;;;;4904704;29;20103;-77
2021/04/29 11:59:17;;;;;;;9.68;3.88;;;615.20;1305.60;;;;;;4915860;29;20092;-79
2021/04/29 12:01:54;;;;;;;7.45;3.58;;;615.30;1228.80;;;;;;4916635;29;20032;-79
2021/04/29 12:04:24;;;;;;;8.63;3.75;;;640.00;1177.60;;;;;;4905141;29;20442;-79
2021/04/29 12:06:59;;;;;;;11.13;3.33;;;640.00;1203.20;;;;;;4915858;29;20425;-79
2021/04/29 12:09:27;;;;;;;8.63;3.45;;;615.20;1280.00;;;;;;4916537;29;20071;-79
2021/04/29 12:11:54;;;;;;;8.38;3.88;;;615.20;1228.80;;;;;;4921826;29;20143;-79
2021/04/29 12:14:27;;;;;;;6.63;3.20;;;615.30;1254.40;;;;;;4907475;29;20167;-79
2021/04/29 12:17:04;;;;;;;6.40;2.92;;;615.30;1152.00;;;;;;4904767;29;20544;-79
2021/04/29 12:19:32;;;;;;;12.18;4.22;;;615.20;1152.00;;;;;;4915831;29;20060;-81
2021/04/29 12:21:59;;;;;;;8.55;4.30;;;615.30;1280.00;;;;;;4916135;29;20074;-80
2021/04/29 12:24:28;;;;;;;8.32;3.90;;;615.30;1228.80;;;;;;4906381;29;20024;-80
2021/04/29 12:26:54;;;;;;;4.85;3.30;;;640.10;1228.80;;;;;;4917374;29;20032;-80
2021/04/29 12:29:21;;;;;;;6.75;3.08;;;640.00;1203.20;;;;;;4918427;29;20027;-79